Time;durP1;ratioP1;P1;durP2;ratioP2;P2;SDS_P1;SDS_P2;PMS_P1;PMS_P2;Temp;Humidity;BMP_temperature;BMP_pressure;BME280_temperature;BME280_humidity;BME280_pressure;Samples;Min_cycle;Max_cycle;Signal;HPM_P1;HPM_P2
2022/10/20 00:01:05;;;;;;;;;10.50;9.50;;;;;10.34;72.91;101796.31;4961821;28;10326;-64
2022/10/20 00:03:32;;;;;;;;;10.25;9.00;;;;;10.35;72.61;101792.59;4971393;28;10315;-67
2022/10/20 00:06:13;;;;;;;;;8.00;6.75;;;;;10.35;72.53;101802.53;4962069;28;10275;-65
2022/10/20 00:08:42;;;;;;;;;7.00;6.00;;;;;10.39;73.04;101791.25;4969787;28;10209;-66
2022/10/20 00:11:10;;;;;;;;;11.50;9.00;;;;;10.43;72.97;101788.22;4962198;28;10371;-65
2022/10/20 00:13:38;;;;;;;;;8.00;6.00;;;;;10.45;72.82;101786.19;4960908;28;10108;-66
2022/10/20 00:16:05;;;;;;;;;9.75;7.50;;;;;10.46;72.63;101772.56;4963437;28;10117;-65
2022/10/20 00:18:31;;;;;;;;;8.50;8.50;;;;;10.45;72.17;101775.41;4970634;28;10930;-66
2022/10/20 00:20:57;;;;;;;;;10.00;10.00;;;;;10.44;72.60;101779.13;4964931;28;10148;-67
2022/10/20 00:23:24;;;;;;;;;8.25;5.75;;;;;10.42;72.37;101776.63;4965960;28;10206;-66
2022/10/20 00:26:03;;;;;;;;;10.00;10.00;;;;;10.42;72.27;101773.94;4969666;28;10032;-65
2022/10/20 00:28:29;;;;;;;;;7.50;7.50;;;;;10.42;72.23;101773.09;4967941;28;10161;-64
2022/10/20 00:30:56;;;;;;;;;7.00;5.75;;;;;10.46;72.67;101769.03;4962512;28;10185;-66
2022/10/20 00:33:23;;;;;;;;;12.50;8.50;;;;;10.43;72.11;101761.31;4967683;28;10963;-65
2022/10/20 00:35:50;;;;;;;;;9.25;9.25;;;;;10.40;72.71;101759.78;4961476;28;10111;-67
2022/10/20 00:38:16;;;;;;;;;11.00;8.00;;;;;10.43;71.69;101753.22;4974258;28;10345;-66
2022/10/20 00:40:44;;;;;;;;;9.00;8.75;;;;;10.36;72.31;101755.75;4967374;28;10323;-66
2022/10/20 00:43:15;;;;;;;;;11.00;8.75;;;;;10.33;72.24;101746.19;4974743;28;10205;-66
2022/10/20 00:45:48;;;;;;;;;9.75;9.50;;;;;10.39;72.51;101755.41;4973711;28;10112;-66
2022/10/20 00:48:19;;;;;;;;;11.00;9.00;;;;;10.38;71.47;101742.97;4972517;28;10040;-66
2022/10/20 00:50:49;;;;;;;;;6.25;5.75;;;;;10.30;72.58;101735.75;4966558;28;10282;-67
2022/10/20 00:53:22;;;;;;;;;12.00;7.75;;;;;10.31;72.38;101748.19;4976045;28;10248;-67
2022/10/20 00:55:51;;;;;;;;;12.25;10.00;;;;;10.29;72.42;101738.59;4960406;28;10366;-66
2022/10/20 00:58:18;;;;;;;;;11.00;10.75;;;;;10.32;72.21;101743.66;4974413;28;10283;-65
2022/10/20 01:00:49;;;;;;;;;11.00;7.75;;;;;10.33;71.97;101748.88;4968745;28;10342;-67
2022/10/20 01:03:23;;;;;;;;;9.00;8.50;;;;;10.34;72.09;101739.78;4963531;28;10140;-67
2022/10/20 01:05:49;;;;;;;;;9.00;9.00;;;;;10.34;71.74;101739.78;4964972;28;10181;-67
2022/10/20 01:08:16;;;;;;;;;8.75;8.25;;;;;10.35;71.80;101740.63;4958918;28;10259;-66
2022/10/20 01:10:56;;;;;;;;;8.00;7.50;;;;;10.34;72.14;101737.09;4966851;28;10042;-66
2022/10/20 01:13:38;;;;;;;;;9.25;8.50;;;;;10.29;71.68;101735.91;4974253;28;10236;-67
2022/10/20 01:16:18;;;;;;;;;7.50;7.50;;;;;10.33;72.25;101729.16;4968497;28;10316;-66
2022/10/20 01:19:02;;;;;;;;;5.75;5.75;;;;;10.36;71.90;101716.22;4959918;28;10432;-66
2022/10/20 01:21:55;;;;;;;;;6.50;6.00;;;;;10.29;71.80;101707.16;4963927;28;10362;-66
2022/10/20 01:24:58;;;;;;;;;12.50;9.00;;;;;10.24;71.80;101716.72;4970889;28;10111;-66
2022/10/20 01:27:30;;;;;;;;;9.50;9.00;;;;;10.12;71.40;101695.53;4963889;28;10274;-66
2022/10/20 01:30:04;;;;;;;;;7.25;7.25;;;;;10.07;72.63;101695.22;4960945;28;11483;-66
2022/10/20 01:32:51;;;;;;;;;8.75;7.00;;;;;10.08;72.49;101696.88;4962966;28;10530;-65
2022/10/20 01:35:29;;;;;;;;;6.50;6.50;;;;;10.11;72.02;101688.47;4967901;28;10484;-65
2022/10/20 01:38:31;;;;;;;;;6.00;6.00;;;;;10.10;72.17;101681.44;4965615;28;10416;-66
2022/10/20 01:41:20;;;;;;;;;9.50;9.25;;;;;10.06;72.30;101672.03;4965097;28;10176;-66
2022/10/20 01:43:48;;;;;;;;;9.50;8.50;;;;;10.07;72.39;101659.41;4968437;28;10412;-66
2022/10/20 01:46:18;;;;;;;;;9.75;7.50;;;;;10.08;72.34;101651.16;4954177;28;10428;-67
2022/10/20 01:48:46;;;;;;;;;10.50;10.50;;;;;10.02;72.33;101641.09;4963992;28;10324;-65
2022/10/20 01:51:12;;;;;;;;;8.75;8.50;;;;;9.96;72.22;101643.63;4964450;28;10610;-65
2022/10/20 01:53:38;;;;;;;;;7.25;7.25;;;;;9.91;72.80;101641.44;4963904;28;10418;-65
2022/10/20 01:56:05;;;;;;;;;10.50;8.00;;;;;9.93;73.06;101635.91;4964320;28;10411;-67
2022/10/20 01:59:10;;;;;;;;;10.50;9.00;;;;;9.95;73.07;101639.25;4972951;28;10423;-66
2022/10/20 02:01:58;;;;;;;;;6.00;6.00;;;;;9.99;72.57;101635.22;4966231;28;10502;-65
2022/10/20 02:04:33;;;;;;;;;8.50;7.00;;;;;10.02;72.53;101640.25;4957767;28;10378;-65
2022/10/20 02:07:11;;;;;;;;;8.25;7.25;;;;;9.97;73.10;101631.88;4967426;28;10240;-66
2022/10/20 02:09:45;;;;;;;;;11.25;10.25;;;;;9.95;72.52;101628.50;4966405;28;11191;-64
2022/10/20 02:12:18;;;;;;;;;13.75;9.75;;;;;9.96;72.86;101620.25;4970032;28;10566;-64
2022/10/20 02:14:46;;;;;;;;;8.00;7.75;;;;;9.94;72.31;101606.16;4966791;28;10449;-66
2022/10/20 02:17:15;;;;;;;;;10.50;8.75;;;;;9.83;72.90;101588.50;4963943;28;10296;-65
2022/10/20 02:19:44;;;;;;;;;15.25;12.25;;;;;9.82;73.56;101592.22;4966181;28;10323;-66
2022/10/20 02:22:13;;;;;;;;;10.75;8.00;;;;;9.78;73.47;101590.03;4970825;28;10496;-65
2022/10/20 02:24:42;;;;;;;;;9.00;8.25;;;;;9.75;73.15;101596.59;4971632;28;10472;-65
2022/10/20 02:27:16;;;;;;;;;12.50;11.75;;;;;9.80;73.47;101615.75;4967125;28;10380;-65
2022/10/20 02:29:48;;;;;;;;;12.00;9.25;;;;;9.80;73.22;101609.53;4968003;28;10428;-66
2022/10/20 02:32:16;;;;;;;;;11.25;7.50;;;;;9.85;73.54;101610.72;4967651;28;10491;-64
2022/10/20 02:34:43;;;;;;;;;9.75;9.50;;;;;9.87;72.83;101610.53;4960948;28;10249;-65
2022/10/20 02:37:10;;;;;;;;;11.25;10.50;;;;;9.87;73.58;101597.91;4972565;28;10347;-65
2022/10/20 02:39:37;;;;;;;;;11.25;9.50;;;;;9.89;73.37;101581.63;4967281;28;10239;-65
2022/10/20 02:42:03;;;;;;;;;11.50;11.00;;;;;9.79;73.34;101564.81;4970864;28;10186;-65
2022/10/20 02:44:29;;;;;;;;;12.00;10.00;;;;;9.76;73.37;101563.31;4963190;28;10250;-65
2022/10/20 02:46:56;;;;;;;;;12.00;10.50;;;;;9.78;73.60;101560.47;4971312;28;10327;-65
2022/10/20 02:49:23;;;;;;;;;8.00;8.00;;;;;9.80;73.56;101558.44;4953570;28;10228;-65
2022/10/20 02:51:50;;;;;;;;;10.75;10.75;;;;;9.75;73.38;101542.81;4965280;28;10267;-65
2022/10/20 02:54:16;;;;;;;;;14.00;11.00;;;;;9.74;73.49;101535.78;4968047;28;10369;-65
2022/10/20 02:56:43;;;;;;;;;12.50;11.00;;;;;9.68;73.86;101540.97;4972225;28;10266;-65
2022/10/20 02:59:14;;;;;;;;;13.00;12.00;;;;;9.59;73.46;101550.91;4957343;28;10309;-66
2022/10/20 03:01:40;;;;;;;;;15.50;10.00;;;;;9.60;74.13;101531.94;4956825;28;10362;-66
2022/10/20 03:04:07;;;;;;;;;11.50;9.75;;;;;9.67;73.93;101529.41;4969708;28;10372;-66
2022/10/20 03:06:34;;;;;;;;;11.75;11.75;;;;;9.69;73.70;101529.25;4972363;28;10495;-66
2022/10/20 03:09:00;;;;;;;;;15.00;11.00;;;;;9.66;74.04;101520.50;4961119;28;11137;-65
2022/10/20 03:11:27;;;;;;;;;10.75;10.25;;;;;9.59;74.10;101518.66;4969543;28;10447;-64
2022/10/20 03:13:53;;;;;;;;;16.75;13.50;;;;;9.61;74.61;101520.19;4971244;28;10343;-66
2022/10/20 03:16:19;;;;;;;;;16.00;16.00;;;;;9.59;74.74;101515.97;4964103;28;10439;-64
2022/10/20 03:18:46;;;;;;;;;13.25;13.00;;;;;9.61;74.32;101508.59;4967882;28;10656;-64
2022/10/20 03:21:12;;;;;;;;;13.00;11.25;;;;;9.61;73.92;101501.38;4968405;28;10487;-66
2022/10/20 03:23:39;;;;;;;;;10.00;9.00;;;;;9.52;74.65;101494.34;4970717;28;11040;-65
2022/10/20 03:26:09;;;;;;;;;14.50;12.75;;;;;9.50;74.39;101500.88;4966894;28;11143;-65
2022/10/20 03:28:37;;;;;;;;;12.00;12.00;;;;;9.46;75.06;101499.53;4967346;28;10531;-66
2022/10/20 03:31:03;;;;;;;;;16.50;15.75;;;;;9.47;74.61;101498.53;4969378;28;10439;-66
2022/10/20 03:33:30;;;;;;;;;9.75;9.00;;;;;9.53;74.89;101489.78;4967939;28;10512;-67
2022/10/20 03:35:56;;;;;;;;;13.75;13.00;;;;;9.55;74.64;101485.06;4964878;28;10912;-66
2022/10/20 03:38:22;;;;;;;;;19.00;13.50;;;;;9.55;74.87;101477.84;4961222;28;10269;-66
2022/10/20 03:40:49;;;;;;;;;14.50;12.25;;;;;9.56;74.75;101487.59;4967280;28;10443;-65
2022/10/20 03:43:15;;;;;;;;;12.00;10.75;;;;;9.59;74.80;101472.97;4969964;28;10450;-66
2022/10/20 03:45:42;;;;;;;;;12.00;12.00;;;;;9.55;74.49;101467.09;4954263;28;10435;-66
2022/10/20 03:48:10;;;;;;;;;18.50;15.50;;;;;9.54;74.96;101457.34;4969017;28;10344;-65
2022/10/20 03:50:41;;;;;;;;;13.00;13.00;;;;;9.51;74.69;101456.88;4970181;28;10525;-66
2022/10/20 03:53:11;;;;;;;;;15.00;12.50;;;;;9.49;74.85;101461.59;4968985;28;11133;-65
2022/10/20 03:55:38;;;;;;;;;18.50;11.25;;;;;9.48;74.58;101459.88;4969474;28;10501;-64
2022/10/20 03:58:04;;;;;;;;;12.75;12.75;;;;;9.48;75.35;101459.88;4971385;28;11396;-64
2022/10/20 04:00:30;;;;;;;;;15.00;12.50;;;;;9.51;75.29;101452.31;4959391;28;10529;-65
2022/10/20 04:02:57;;;;;;;;;19.75;15.00;;;;;9.53;74.72;101450.31;4961748;28;10488;-65
2022/10/20 04:05:23;;;;;;;;;12.25;10.75;;;;;9.52;74.57;101437.03;4971015;28;10510;-64
2022/10/20 04:07:50;;;;;;;;;14.00;13.50;;;;;9.50;74.15;101428.31;4971436;28;10491;-65
2022/10/20 04:10:16;;;;;;;;;13.75;13.00;;;;;9.40;74.91;101415.09;4967121;28;10581;-64
2022/10/20 04:12:43;;;;;;;;;12.50;12.50;;;;;9.36;74.84;101397.63;4964367;28;10613;-67
2022/10/20 04:15:09;;;;;;;;;16.50;13.00;;;;;9.32;75.21;101388.25;4968690;28;10528;-66
2022/10/20 04:17:36;;;;;;;;;23.50;17.50;;;;;9.27;75.70;101394.13;4969674;28;11305;-66
2022/10/20 04:20:03;;;;;;;;;9.75;9.75;;;;;9.27;75.94;101412.91;4951766;28;10504;-67
2022/10/20 04:22:30;;;;;;;;;12.75;12.25;;;;;9.35;75.98;101425.50;4960407;28;10510;-66
2022/10/20 04:24:56;;;;;;;;;15.50;15.50;;;;;9.36;75.77;101419.97;4961108;28;10371;-66
2022/10/20 04:27:23;;;;;;;;;14.75;12.50;;;;;9.36;75.50;101408.38;4958482;28;10523;-67
2022/10/20 04:29:49;;;;;;;;;11.00;10.00;;;;;9.37;75.92;101399.31;4970636;28;10399;-67
2022/10/20 04:32:16;;;;;;;;;16.75;14.25;;;;;9.35;75.66;101404.00;4970928;28;10343;-66
2022/10/20 04:34:42;;;;;;;;;13.00;13.00;;;;;9.39;75.65;101394.59;4968138;28;10415;-66
2022/10/20 04:37:08;;;;;;;;;11.25;9.75;;;;;9.44;75.39;101399.44;4970941;28;10671;-66
2022/10/20 04:39:35;;;;;;;;;12.25;12.00;;;;;9.45;75.57;101406.50;4961169;28;10486;-67
2022/10/20 04:42:01;;;;;;;;;13.25;13.25;;;;;9.43;75.17;101416.56;4955507;28;10526;-66
2022/10/20 04:44:27;;;;;;;;;17.50;11.25;;;;;9.40;75.76;101432.06;4966812;28;10404;-67
2022/10/20 04:46:54;;;;;;;;;12.25;11.50;;;;;9.46;75.67;101443.13;4964106;28;10579;-67
2022/10/20 04:49:21;;;;;;;;;12.50;12.00;;;;;9.50;75.74;101442.59;4963663;28;10617;-66
2022/10/20 04:51:48;;;;;;;;;15.00;14.50;;;;;9.56;75.32;101419.56;4960038;28;11216;-66
2022/10/20 04:54:14;;;;;;;;;11.75;10.50;;;;;9.60;75.79;101404.75;4967957;28;10520;-67
2022/10/20 04:56:40;;;;;;;;;15.25;12.00;;;;;9.58;74.93;101396.88;4966672;28;10503;-66
2022/10/20 04:59:07;;;;;;;;;10.50;10.50;;;;;9.55;75.16;101391.00;4966535;28;10413;-66
2022/10/20 05:01:38;;;;;;;;;16.25;14.25;;;;;9.57;75.07;101384.47;4973062;28;10519;-67
2022/10/20 05:04:05;;;;;;;;;18.75;15.50;;;;;9.56;74.92;101380.09;4969459;28;10551;-67
2022/10/20 05:06:32;;;;;;;;;13.25;13.00;;;;;9.57;75.46;101370.19;4961436;28;10679;-65
2022/10/20 05:09:04;;;;;;;;;11.50;10.25;;;;;9.57;74.96;101373.72;4963748;28;11205;-68
2022/10/20 05:11:34;;;;;;;;;12.75;12.00;;;;;9.62;75.57;101375.88;4967214;28;10527;-67
2022/10/20 05:14:00;;;;;;;;;12.25;11.00;;;;;9.60;75.08;101373.38;4968845;28;10596;-67
2022/10/20 05:16:27;;;;;;;;;8.25;8.00;;;;;9.61;75.13;101374.19;4968334;28;10587;-66
2022/10/20 05:18:54;;;;;;;;;13.50;12.75;;;;;9.53;74.81;101352.72;4958718;28;10282;-67
2022/10/20 05:21:24;;;;;;;;;14.00;13.00;;;;;9.57;74.83;101354.88;4970853;28;10528;-68
2022/10/20 05:24:02;;;;;;;;;11.50;10.50;;;;;9.55;75.39;101329.19;4963655;28;10539;-67
2022/10/20 05:26:33;;;;;;;;;15.75;14.50;;;;;9.53;75.48;101329.38;4971797;28;11192;-67
2022/10/20 05:29:02;;;;;;;;;13.00;11.25;;;;;9.57;75.08;101329.88;4969944;28;10439;-68
2022/10/20 05:31:29;;;;;;;;;12.25;12.25;;;;;9.60;75.59;101338.41;4972459;28;10586;-67
2022/10/20 05:33:56;;;;;;;;;16.25;13.50;;;;;9.65;75.06;101359.41;4960082;28;10512;-68
2022/10/20 05:36:25;;;;;;;;;14.25;13.00;;;;;9.63;75.20;101356.03;4964361;28;10366;-68
2022/10/20 05:38:54;;;;;;;;;15.50;13.50;;;;;9.61;75.12;101340.09;4965683;28;11137;-68
2022/10/20 05:41:23;;;;;;;;;18.25;15.75;;;;;9.57;75.15;101327.19;4961676;28;10548;-68
2022/10/20 05:43:52;;;;;;;;;11.75;11.75;;;;;9.57;75.72;101321.81;4967160;28;11290;-68
2022/10/20 05:46:19;;;;;;;;;17.00;13.50;;;;;9.55;75.44;101316.59;4959637;28;10521;-67
2022/10/20 05:48:46;;;;;;;;;16.00;14.00;;;;;9.59;75.80;101309.00;4967400;28;10525;-67
2022/10/20 05:51:20;;;;;;;;;18.50;14.00;;;;;9.54;75.33;101295.28;4970383;28;10428;-68
2022/10/20 05:53:47;;;;;;;;;16.00;15.25;;;;;9.53;75.44;101290.91;4973241;28;10639;-67
2022/10/20 05:56:16;;;;;;;;;11.50;11.50;;;;;9.55;75.82;101305.84;4963017;28;10542;-66
2022/10/20 05:58:43;;;;;;;;;14.75;13.25;;;;;9.59;75.57;101323.28;4954186;28;10640;-71
2022/10/20 06:01:16;;;;;;;;;16.00;14.75;;;;;9.58;75.78;101327.00;4972721;28;10472;-67
2022/10/20 06:04:01;;;;;;;;;17.50;13.50;;;;;9.52;75.24;101314.28;4972476;28;10579;-68
2022/10/20 06:06:29;;;;;;;;;13.50;11.50;;;;;9.52;76.08;101305.34;4973291;28;10590;-67
2022/10/20 06:08:58;;;;;;;;;14.50;13.50;;;;;9.52;75.62;101319.66;4971845;28;10516;-67
2022/10/20 06:11:25;;;;;;;;;15.75;13.75;;;;;9.53;76.22;101307.88;4972932;28;10445;-66
2022/10/20 06:13:52;;;;;;;;;17.25;16.50;;;;;9.57;75.90;101292.25;4972993;28;10402;-69
2022/10/20 06:16:24;;;;;;;;;14.25;14.25;;;;;9.62;76.04;101300.59;4971538;28;10520;-68
2022/10/20 06:18:51;;;;;;;;;17.00;15.00;;;;;9.62;75.81;101308.66;4972940;28;10613;-68
2022/10/20 06:21:20;;;;;;;;;19.75;16.00;;;;;9.62;75.77;101305.97;4972868;28;11352;-68
2022/10/20 06:23:47;;;;;;;;;18.25;16.50;;;;;9.58;76.33;101305.50;4972778;28;10650;-69
2022/10/20 06:26:24;;;;;;;;;18.50;15.75;;;;;9.65;76.06;101308.31;4972935;28;10650;-68
2022/10/20 06:28:53;;;;;;;;;13.75;13.00;;;;;9.67;76.07;101300.91;4972605;28;10353;-68
2022/10/20 06:31:28;;;;;;;;;12.50;12.00;;;;;9.67;76.08;101319.72;4953771;28;10425;-68
2022/10/20 06:33:54;;;;;;;;;19.25;11.75;;;;;9.71;76.23;101318.34;4953307;28;10512;-68
2022/10/20 06:36:22;;;;;;;;;17.50;17.50;;;;;9.73;76.14;101316.34;4953181;28;10420;-67
2022/10/20 06:38:57;;;;;;;;;19.00;16.50;;;;;9.70;75.94;101314.00;4953393;28;10488;-66
2022/10/20 06:41:27;;;;;;;;;15.50;15.25;;;;;9.70;76.26;101303.25;4965605;28;10550;-66
2022/10/20 06:43:57;;;;;;;;;14.75;14.00;;;;;9.72;75.68;101290.44;4971247;28;11113;-67
2022/10/20 06:46:26;;;;;;;;;20.25;16.00;;;;;9.68;76.09;101307.09;4972030;28;10571;-66
2022/10/20 06:48:53;;;;;;;;;12.50;11.25;;;;;9.69;76.09;101292.69;4969839;28;10502;-68
2022/10/20 06:51:24;;;;;;;;;19.00;16.75;;;;;9.63;76.50;101296.91;4969562;28;10564;-65
2022/10/20 06:53:51;;;;;;;;;12.00;12.00;;;;;9.69;76.91;101293.50;4972530;28;10507;-65
2022/10/20 06:56:22;;;;;;;;;13.25;12.25;;;;;9.72;76.43;101292.31;4972333;28;10408;-64
2022/10/20 06:58:50;;;;;;;;;15.00;14.00;;;;;9.72;76.74;101287.75;4971967;28;11282;-65
2022/10/20 07:01:22;;;;;;;;;15.75;14.00;;;;;9.75;76.64;101287.41;4972066;28;10335;-65
2022/10/20 07:03:51;;;;;;;;;18.50;15.75;;;;;9.78;76.49;101302.38;4971940;28;10587;-65
2022/10/20 07:06:21;;;;;;;;;13.50;11.25;;;;;9.80;76.98;101308.38;4972532;28;10431;-66
2022/10/20 07:08:49;;;;;;;;;16.75;11.00;;;;;9.81;76.15;101304.69;4972120;28;10455;-66
2022/10/20 07:11:19;;;;;;;;;15.75;13.75;;;;;9.79;76.42;101312.09;4971858;28;11229;-66
2022/10/20 07:13:47;;;;;;;;;14.50;11.00;;;;;9.83;76.86;101308.88;4962931;28;11329;-66
2022/10/20 07:16:17;;;;;;;;;15.25;14.50;;;;;9.85;76.51;101298.78;4952664;28;10356;-67
2022/10/20 07:18:43;;;;;;;;;17.00;14.75;;;;;9.85;76.61;101292.56;4952615;28;11196;-66
2022/10/20 07:21:15;;;;;;;;;9.00;8.75;;;;;9.92;76.64;101288.13;4952408;28;10430;-68
2022/10/20 07:23:42;;;;;;;;;17.75;14.25;;;;;9.95;76.36;101289.63;4952496;28;10379;-68
2022/10/20 07:26:22;;;;;;;;;13.00;11.25;;;;;9.93;76.55;101291.69;4952580;28;10519;-66
2022/10/20 07:28:51;;;;;;;;;18.00;16.00;;;;;9.99;76.73;101293.63;4968973;28;10343;-66
2022/10/20 07:31:26;;;;;;;;;13.50;11.25;;;;;10.01;76.89;101275.50;4971704;28;11224;-67
2022/10/20 07:33:52;;;;;;;;;18.25;16.75;;;;;10.02;76.62;101272.59;4971715;28;10437;-63
2022/10/20 07:36:41;;;;;;;;;21.25;17.00;;;;;10.05;76.28;101269.56;4971778;28;10368;-67
2022/10/20 07:39:09;;;;;;;;;18.25;15.75;;;;;10.06;76.01;101260.47;4971555;28;10692;-66
2022/10/20 07:41:38;;;;;;;;;17.00;15.00;;;;;10.09;76.20;101270.03;4970123;28;10726;-66
2022/10/20 07:44:05;;;;;;;;;22.00;16.75;;;;;10.13;76.78;101266.81;4952505;28;10531;-66
2022/10/20 07:46:32;;;;;;;;;15.50;13.25;;;;;10.17;76.05;101261.91;4952403;28;10587;-66
2022/10/20 07:48:58;;;;;;;;;14.75;14.25;;;;;10.18;76.58;101263.56;4952304;28;10362;-66
2022/10/20 07:51:44;;;;;;;;;18.50;16.50;;;;;10.21;76.37;101265.03;4952165;28;10581;-66
2022/10/20 07:54:11;;;;;;;;;17.25;12.00;;;;;10.24;76.20;101262.81;4951975;28;11411;-66
2022/10/20 07:56:40;;;;;;;;;17.25;16.25;;;;;10.26;76.07;101260.00;4960437;28;10446;-69
2022/10/20 07:59:08;;;;;;;;;18.00;12.00;;;;;10.28;76.14;101260.66;4971439;28;10827;-67
2022/10/20 08:01:34;;;;;;;;;15.50;14.75;;;;;10.30;76.38;101269.38;4971191;28;10416;-64
2022/10/20 08:04:01;;;;;;;;;15.25;12.00;;;;;10.28;76.40;101263.34;4971630;28;10492;-66
2022/10/20 08:06:27;;;;;;;;;19.00;17.00;;;;;10.28;76.09;101253.41;4971710;28;10513;-66
2022/10/20 08:08:54;;;;;;;;;14.25;13.50;;;;;10.32;76.14;101243.94;4971581;28;10608;-65
2022/10/20 08:11:21;;;;;;;;;16.25;16.25;;;;;10.35;76.67;101246.28;4958353;28;10360;-65
2022/10/20 08:13:48;;;;;;;;;19.50;14.75;;;;;10.36;76.58;101234.50;4951929;28;10417;-67
2022/10/20 08:16:14;;;;;;;;;11.25;11.25;;;;;10.41;76.38;101231.25;4952371;28;10351;-65
2022/10/20 08:18:44;;;;;;;;;15.00;12.00;;;;;10.47;76.24;101225.16;4951923;28;10374;-66
2022/10/20 08:21:25;;;;;;;;;15.50;13.75;;;;;10.49;76.51;101214.19;4911340;29;10428;-67
2022/10/20 08:23:51;;;;;;;;;14.50;13.50;;;;;10.52;76.35;101229.97;4911551;29;10466;-66
2022/10/20 08:26:21;;;;;;;;;18.75;14.75;;;;;10.53;76.44;101228.94;4911398;29;10462;-67
2022/10/20 08:28:49;;;;;;;;;17.00;14.00;;;;;10.56;76.32;101218.66;4911381;29;10490;-67
2022/10/20 08:31:16;;;;;;;;;17.00;15.25;;;;;10.59;76.53;101228.22;4911920;29;10372;-65
2022/10/20 08:33:42;;;;;;;;;15.25;14.00;;;;;10.62;76.00;101234.06;4927098;29;10492;-65
2022/10/20 08:36:12;;;;;;;;;15.75;13.75;;;;;10.67;76.76;101224.59;4934264;29;11144;-65
2022/10/20 08:38:39;;;;;;;;;20.25;14.00;;;;;10.71;76.15;101215.97;4926692;29;10270;-66
2022/10/20 08:41:14;;;;;;;;;20.25;18.00;;;;;10.74;76.16;101234.44;4918908;29;10136;-66
2022/10/20 08:43:41;;;;;;;;;13.00;11.75;;;;;10.78;76.38;101232.22;4913977;29;10251;-65
2022/10/20 08:46:16;;;;;;;;;15.00;15.00;;;;;10.84;76.43;101237.69;4932049;29;10120;-65
2022/10/20 08:48:45;;;;;;;;;11.75;10.75;;;;;10.88;76.24;101232.75;4936462;28;10115;-67
2022/10/20 08:51:24;;;;;;;;;11.00;10.75;;;;;10.95;76.04;101230.16;4954598;28;10924;-66
2022/10/20 08:53:54;;;;;;;;;13.25;13.00;;;;;10.98;76.09;101205.53;4954627;28;10139;-65
2022/10/20 08:56:24;;;;;;;;;10.00;10.00;;;;;11.01;76.13;101208.69;4956942;28;10195;-67
2022/10/20 08:58:50;;;;;;;;;11.50;10.75;;;;;11.05;76.46;101209.16;4974046;28;10088;-66
2022/10/20 09:01:20;;;;;;;;;11.50;10.25;;;;;11.06;76.29;101198.22;4973715;28;10914;-66
2022/10/20 09:03:55;;;;;;;;;13.25;12.00;;;;;11.06;76.53;101194.66;4973544;28;10116;-67
2022/10/20 09:06:22;;;;;;;;;17.75;13.75;;;;;11.11;76.18;101206.56;4974086;28;10237;-66
2022/10/20 09:08:50;;;;;;;;;14.25;11.50;;;;;11.15;76.60;101190.84;4973016;28;9989;-65
2022/10/20 09:11:21;;;;;;;;;17.50;15.75;;;;;11.17;76.65;101193.34;4954329;28;10207;-66
2022/10/20 09:13:47;;;;;;;;;14.75;12.75;;;;;11.18;76.24;101190.47;4955023;28;10422;-67
2022/10/20 09:16:24;;;;;;;;;16.75;14.75;;;;;11.17;76.57;101186.09;4954496;28;10697;-65
2022/10/20 09:19:17;;;;;;;;;19.50;14.00;;;;;11.22;76.73;101170.22;4954226;28;10053;-66
2022/10/20 09:21:47;;;;;;;;;15.50;15.00;;;;;11.25;76.80;101171.66;4954355;28;10102;-66
2022/10/20 09:24:13;;;;;;;;;15.50;13.75;;;;;11.28;76.51;101172.13;4954228;28;10130;-68
2022/10/20 09:26:47;;;;;;;;;19.25;16.00;;;;;11.25;76.62;101177.88;4955400;28;10113;-67
2022/10/20 09:29:37;;;;;;;;;18.25;16.25;;;;;11.34;76.52;101184.00;4954078;28;10199;-67
2022/10/20 09:32:20;;;;;;;;;15.25;15.25;;;;;11.38;76.39;101182.59;4954165;28;10214;-67
2022/10/20 09:35:39;;;;;;;;;21.50;16.25;;;;;11.37;76.41;101168.28;4954170;28;10193;-66
2022/10/20 09:38:08;;;;;;;;;14.50;13.25;;;;;11.39;76.69;101165.41;4952846;28;10230;-66
2022/10/20 09:40:42;;;;;;;;;14.50;10.25;;;;;11.42;76.83;101162.31;4954448;28;10106;-67
2022/10/20 09:43:14;;;;;;;;;15.50;12.50;;;;;11.44;76.78;101151.34;4959353;28;10042;-67
2022/10/20 09:45:52;;;;;;;;;19.75;17.50;;;;;11.45;76.88;101161.94;4973687;28;10720;-67
2022/10/20 09:48:27;;;;;;;;;15.00;14.00;;;;;11.47;76.73;101142.88;4973573;28;10902;-67
2022/10/20 09:50:57;;;;;;;;;13.75;12.00;;;;;11.51;76.91;101145.00;4973455;28;10122;-66
2022/10/20 09:53:34;;;;;;;;;11.50;11.50;;;;;11.53;76.89;101152.88;4973449;28;9961;-66
2022/10/20 09:56:01;;;;;;;;;19.00;16.25;;;;;11.55;76.80;101135.50;4988248;28;10065;-66
2022/10/20 09:58:34;;;;;;;;;14.50;12.75;;;;;11.57;76.85;101140.69;4962547;28;10135;-66
2022/10/20 10:01:04;;;;;;;;;16.00;16.00;;;;;11.60;76.79;101148.41;4953888;28;10029;-68
2022/10/20 10:03:39;;;;;;;;;15.25;13.25;;;;;11.61;76.94;101137.41;4954479;28;10029;-68
2022/10/20 10:06:42;;;;;;;;;14.50;12.75;;;;;11.61;77.06;101133.88;4953609;28;10167;-67
2022/10/20 10:09:30;;;;;;;;;14.50;14.00;;;;;11.63;77.00;101138.06;4953758;28;9936;-67
2022/10/20 10:12:24;;;;;;;;;13.25;13.00;;;;;11.66;76.97;101142.22;4961230;28;10187;-67
2022/10/20 10:14:59;;;;;;;;;17.00;15.75;;;;;11.67;77.24;101149.28;4971983;28;9945;-66
2022/10/20 10:17:36;;;;;;;;;15.25;13.50;;;;;11.70;76.94;101146.19;4967189;28;10131;-65
2022/10/20 10:20:26;;;;;;;;;11.50;10.25;;;;;11.72;77.07;101144.16;4964569;28;10086;-66
2022/10/20 10:23:13;;;;;;;;;12.75;12.75;;;;;11.79;76.86;101149.59;4972944;28;10021;-66
2022/10/20 10:25:39;;;;;;;;;15.00;13.25;;;;;11.80;77.08;101143.19;4973227;28;10233;-67
2022/10/20 10:28:28;;;;;;;;;16.00;15.50;;;;;11.80;77.24;101118.91;4969045;28;9983;-66
2022/10/20 10:31:23;;;;;;;;;21.00;18.75;;;;;11.79;77.44;101128.03;4963855;28;10385;-66
2022/10/20 10:33:54;;;;;;;;;17.25;17.00;;;;;11.80;77.86;101114.34;4972557;28;10248;-67
2022/10/20 10:36:30;;;;;;;;;16.50;15.75;;;;;11.82;77.96;101124.91;4972693;28;10094;-65
2022/10/20 10:38:58;;;;;;;;;16.25;14.00;;;;;11.88;77.89;101127.72;4954672;28;10201;-66
2022/10/20 10:41:27;;;;;;;;;24.75;19.25;;;;;11.88;77.60;101116.91;4953141;28;10213;-66
2022/10/20 10:44:02;;;;;;;;;14.25;14.25;;;;;11.91;77.84;101123.78;4953383;28;10296;-67
2022/10/20 10:46:38;;;;;;;;;21.25;16.00;;;;;11.92;77.81;101125.47;4972597;28;9943;-67
2022/10/20 10:49:42;;;;;;;;;23.50;19.50;;;;;11.92;77.94;101119.22;4972545;28;10120;-67
2022/10/20 10:52:26;;;;;;;;;22.50;20.25;;;;;11.97;78.11;101087.94;4972054;28;10225;-66
2022/10/20 10:55:04;;;;;;;;;25.25;17.50;;;;;11.98;78.39;101105.78;4972061;28;10185;-66
2022/10/20 10:57:51;;;;;;;;;16.75;15.00;;;;;12.01;78.63;101088.38;4972336;28;10193;-66
2022/10/20 11:00:36;;;;;;;;;17.25;16.75;;;;;12.04;78.62;101086.13;4958423;28;10032;-67
2022/10/20 11:03:21;;;;;;;;;21.25;20.50;;;;;12.06;78.86;101072.41;4952999;28;10312;-67
2022/10/20 11:05:55;;;;;;;;;18.00;17.50;;;;;12.08;78.96;101076.59;4953217;28;10184;-65
2022/10/20 11:08:42;;;;;;;;;14.75;14.25;;;;;12.09;79.05;101061.22;4952884;28;9959;-66
2022/10/20 11:11:16;;;;;;;;;17.50;13.00;;;;;12.11;79.09;101059.16;4952428;28;10043;-66
2022/10/20 11:14:05;;;;;;;;;19.00;19.00;;;;;12.10;79.48;101058.31;4960827;28;10779;-66
2022/10/20 11:16:43;;;;;;;;;22.25;21.75;;;;;12.13;79.61;101059.78;4953215;28;10188;-65
2022/10/20 11:19:30;;;;;;;;;31.25;28.25;;;;;12.10;79.86;101034.03;4971843;28;10128;-65
2022/10/20 11:22:14;;;;;;;;;20.25;20.00;;;;;12.14;79.83;101045.25;4971803;28;10139;-66
2022/10/20 11:25:01;;;;;;;;;23.00;22.00;;;;;12.13;80.23;101046.31;4970328;28;10321;-64
2022/10/20 11:27:35;;;;;;;;;23.50;19.00;;;;;12.16;80.28;101042.38;4952714;28;10120;-66
2022/10/20 11:30:19;;;;;;;;;23.25;22.50;;;;;12.17;80.38;101054.84;4953437;28;10278;-65
2022/10/20 11:33:03;;;;;;;;;18.50;16.00;;;;;12.18;80.55;101051.94;4952434;28;10193;-67
2022/10/20 11:35:38;;;;;;;;;20.50;17.00;;;;;12.19;80.50;101039.25;4967032;28;10138;-67
2022/10/20 11:38:25;;;;;;;;;21.75;19.50;;;;;12.21;80.66;101048.00;4952560;28;9969;-66